Time;durP1;ratioP1;P1;durP2;ratioP2;P2;SDS_P1;SDS_P2;PMS_P1;PMS_P2;Temp;Humidity;BMP_temperature;BMP_pressure;BME280_temperature;BME280_humidity;BME280_pressure;Samples;Min_cycle;Max_cycle;Signal;HPM_P1;HPM_P2
2021/09/24 00:01:24;;;;;;;7.20;2.40;;;;;;;16.76;67.33;99835.94;6219579;23;20017;-80
2021/09/24 00:03:51;;;;;;;8.20;1.77;;;;;;;16.75;67.38;99836.91;6219453;23;20066;-78
2021/09/24 00:06:21;;;;;;;10.40;2.00;;;;;;;16.72;67.81;99827.38;6219479;23;20118;-79
2021/09/24 00:08:48;;;;;;;7.03;2.22;;;;;;;16.74;67.40;99830.72;6219298;23;20028;-78
2021/09/24 00:11:19;;;;;;;7.90;1.83;;;;;;;16.71;67.66;99828.31;6220878;23;20440;-79
2021/09/24 00:13:46;;;;;;;7.85;1.90;;;;;;;16.73;67.33;99831.72;6221349;23;20459;-78
2021/09/24 00:16:12;;;;;;;9.15;2.22;;;;;;;16.73;67.42;99834.38;6221572;23;20071;-80
2021/09/24 00:18:41;;;;;;;10.02;2.28;;;;;;;16.73;67.38;99830.84;6221049;23;20082;-80
2021/09/24 00:21:07;;;;;;;8.35;1.85;;;;;;;16.72;67.37;99830.03;6221096;23;20024;-80
2021/09/24 00:23:34;;;;;;;10.05;2.00;;;;;;;16.74;67.43;99832.56;6221148;23;20024;-81
2021/09/24 00:26:04;;;;;;;7.20;1.88;;;;;;;16.73;67.57;99834.38;6221157;23;20371;-80
2021/09/24 00:28:31;;;;;;;5.47;1.98;;;;;;;16.74;67.32;99824.59;6221044;23;20064;-80
2021/09/24 00:30:58;;;;;;;7.60;1.88;;;;;;;16.75;67.30;99831.59;6220999;23;20043;-80
2021/09/24 00:33:27;;;;;;;8.13;2.25;;;;;;;16.73;67.28;99831.72;6221313;23;20471;-80
2021/09/24 00:36:02;;;;;;;10.30;2.05;;;;;;;16.70;67.92;99828.47;6220911;23;20027;-80
2021/09/24 00:38:29;;;;;;;6.88;1.75;;;;;;;16.72;67.44;99831.84;6220874;23;20074;-81
2021/09/24 00:40:59;;;;;;;12.13;2.17;;;;;;;16.68;67.77;99829.41;6221393;23;20020;-80
2021/09/24 00:43:26;;;;;;;7.20;1.92;;;;;;;16.70;67.36;99834.63;6221241;23;20074;-80
2021/09/24 00:46:17;;;;;;;6.43;1.70;;;;;;;16.65;67.92;99828.84;6220822;23;20024;-81
2021/09/24 00:48:46;;;;;;;8.95;2.15;;;;;;;16.70;67.37;99834.63;6220774;23;20016;-81
2021/09/24 00:51:18;;;;;;;6.85;2.15;;;;;;;16.67;67.89;99833.06;6221586;23;20027;-80
2021/09/24 00:53:45;;;;;;;6.78;2.33;;;;;;;16.68;67.34;99820.63;6220772;23;20074;-80
2021/09/24 00:56:13;;;;;;;11.38;2.17;;;;;;;16.69;67.59;99827.63;6220847;23;20031;-80
2021/09/24 00:58:44;;;;;;;7.50;1.85;;;;;;;16.66;67.88;99822.53;6220689;23;20082;-80
2021/09/24 01:01:12;;;;;;;10.57;2.10;;;;;;;16.68;67.58;99823.28;6221124;23;20035;-81
2021/09/24 01:03:40;;;;;;;7.22;1.83;;;;;;;16.68;67.33;99818.78;6221383;23;20039;-80
2021/09/24 01:06:11;;;;;;;8.13;1.77;;;;;;;16.67;67.93;99817.09;6221106;23;20467;-80
2021/09/24 01:08:38;;;;;;;11.18;2.15;;;;;;;16.68;67.52;99802.84;6220672;23;20024;-80
2021/09/24 01:11:09;;;;;;;8.80;2.28;;;;;;;16.66;68.07;99809.25;6220695;23;20020;-80
2021/09/24 01:13:35;;;;;;;9.85;2.25;;;;;;;16.69;67.37;99806.34;6220604;23;20028;-81
2021/09/24 01:16:07;;;;;;;6.75;1.98;;;;;;;16.70;67.38;99801.91;6221914;23;20390;-81
2021/09/24 01:18:34;;;;;;;8.70;1.80;;;;;;;16.70;67.44;99807.22;6220788;23;20095;-80
2021/09/24 01:21:09;;;;;;;7.57;2.08;;;;;;;16.66;67.99;99812.78;6220536;23;20024;-80
2021/09/24 01:23:36;;;;;;;5.22;1.33;;;;;;;16.69;67.52;99809.00;6221159;23;20382;-80
2021/09/24 01:26:03;;;;;;;5.80;2.03;;;;;;;16.70;67.49;99807.22;6220269;23;20035;-80
2021/09/24 01:28:30;;;;;;;9.68;2.00;;;;;;;16.69;67.52;99803.69;6220623;23;20027;-80
2021/09/24 01:31:00;;;;;;;7.80;1.85;;;;;;;16.68;67.81;99807.34;6220832;23;20046;-80
2021/09/24 01:33:27;;;;;;;8.07;1.90;;;;;;;16.69;67.45;99806.34;6220407;23;20031;-81
2021/09/24 01:35:55;;;;;;;7.60;2.28;;;;;;;16.69;67.63;99806.34;6220261;23;20028;-81
2021/09/24 01:38:21;;;;;;;9.40;2.28;;;;;;;16.71;67.43;99809.72;6221511;23;20027;-79
2021/09/24 01:41:00;;;;;;;5.72;1.70;;;;;;;16.67;67.91;99809.13;6220245;23;20020;-79
2021/09/24 01:43:27;;;;;;;6.85;1.90;;;;;;;16.71;67.63;99804.41;6246797;23;20082;-79
2021/09/24 01:45:56;;;;;;;10.68;2.55;;;;;;;16.70;67.73;99797.41;6247000;23;20020;-79
2021/09/24 01:48:23;;;;;;;4.85;1.50;;;;;;;16.71;67.47;99796.44;6220410;23;20024;-79
2021/09/24 01:50:50;;;;;;;6.90;2.33;;;;;;;16.71;67.41;99793.78;6220256;23;20020;-79
2021/09/24 01:53:18;;;;;;;7.85;2.25;;;;;;;16.71;67.67;99807.06;6220237;23;20028;-79
2021/09/24 01:55:44;;;;;;;7.18;1.95;;;;;;;16.70;67.55;99805.38;6220401;23;20343;-79
2021/09/24 01:58:12;;;;;;;6.60;1.80;;;;;;;16.70;67.60;99805.38;6220661;23;20355;-79
2021/09/24 02:00:49;;;;;;;6.05;1.73;;;;;;;16.67;68.24;99808.28;6220134;23;20023;-79
2021/09/24 02:03:16;;;;;;;11.32;2.35;;;;;;;16.70;67.61;99810.69;6220785;23;20020;-79
2021/09/24 02:05:43;;;;;;;6.28;1.95;;;;;;;16.70;67.78;99807.22;6220062;23;20034;-79
2021/09/24 02:08:13;;;;;;;5.90;1.92;;;;;;;16.69;67.88;99817.00;6220751;23;20028;-79
2021/09/24 02:10:40;;;;;;;9.15;2.45;;;;;;;16.70;67.58;99817.84;6219963;23;20062;-79
2021/09/24 02:13:07;;;;;;;7.63;2.00;;;;;;;16.68;67.62;99805.50;6219978;23;20078;-79
2021/09/24 02:15:33;;;;;;;9.13;2.40;;;;;;;16.70;67.73;99808.03;6219992;23;20513;-79
2021/09/24 02:18:01;;;;;;;7.20;1.73;;;;;;;16.68;67.83;99804.69;6220439;23;20116;-79
2021/09/24 02:20:28;;;;;;;10.50;2.33;;;;;;;16.69;67.72;99814.31;6219825;23;20028;-79
2021/09/24 02:22:55;;;;;;;15.90;2.30;;;;;;;16.68;67.80;99807.34;6220256;23;20020;-79
2021/09/24 02:25:22;;;;;;;8.10;2.33;;;;;;;16.69;67.73;99809.00;6219872;23;20054;-79
2021/09/24 02:27:49;;;;;;;11.85;2.33;;;;;;;16.68;67.88;99810.00;6219776;23;20070;-79
2021/09/24 02:30:19;;;;;;;11.45;2.28;;;;;;;16.67;68.18;99805.63;6219846;23;20024;-80
2021/09/24 02:32:46;;;;;;;9.38;2.30;;;;;;;16.69;68.12;99803.69;6219545;23;20024;-81
2021/09/24 02:35:12;;;;;;;7.38;2.53;;;;;;;16.70;67.88;99802.72;6220012;23;20466;-79
2021/09/24 02:38:16;;;;;;;8.82;2.38;;;;;;;16.67;68.67;99808.28;6220146;23;20082;-79
2021/09/24 02:40:43;;;;;;;11.18;2.17;;;;;;;16.72;67.92;99811.44;6220071;23;20379;-80
2021/09/24 02:43:10;;;;;;;7.93;1.92;;;;;;;16.72;68.04;99808.78;6219555;23;20499;-79
2021/09/24 02:45:37;;;;;;;9.32;2.30;;;;;;;16.73;67.81;99806.94;6218765;23;20066;-79
2021/09/24 02:48:12;;;;;;;5.30;2.15;;;;;;;16.70;68.51;99804.56;6219491;23;20020;-79
2021/09/24 02:50:39;;;;;;;6.90;1.90;;;;;;;16.72;67.97;99798.13;6219742;23;20024;-79
2021/09/24 02:53:05;;;;;;;10.90;2.40;;;;;;;16.72;68.07;99806.09;6219933;23;20078;-79
2021/09/24 02:55:32;;;;;;;10.75;2.53;;;;;;;16.72;68.06;99800.78;6219475;23;20028;-79
2021/09/24 02:58:12;;;;;;;9.93;2.30;;;;;;;16.69;68.79;99801.03;6220123;23;20500;-79
2021/09/24 03:00:38;;;;;;;10.32;2.22;;;;;;;16.73;68.06;99796.31;6219673;23;20086;-79
2021/09/24 03:03:06;;;;;;;9.82;2.55;;;;;;;16.72;68.08;99795.47;6247169;23;20447;-79
2021/09/24 03:05:33;;;;;;;13.18;2.78;;;;;;;16.74;68.18;99790.03;6219845;23;20024;-79
2021/09/24 03:08:09;;;;;;;9.05;2.20;;;;;;;16.72;68.83;99794.63;6219698;23;20024;-79
2021/09/24 03:10:36;;;;;;;10.65;2.40;;;;;;;16.76;68.21;99791.59;6220209;23;20447;-79
2021/09/24 03:13:18;;;;;;;11.35;2.50;;;;;;;16.72;68.74;99790.16;6220117;23;20051;-79
2021/09/24 03:15:45;;;;;;;12.05;2.72;;;;;;;16.79;68.05;99790.50;6245908;23;20024;-79
2021/09/24 03:18:12;;;;;;;6.93;1.92;;;;;;;16.79;68.18;99779.88;6246509;23;20358;-79
2021/09/24 03:20:52;;;;;;;10.80;2.55;;;;;;;16.75;68.65;99767.78;6219241;23;20074;-79
2021/09/24 03:23:20;;;;;;;7.63;2.30;;;;;;;16.80;68.34;99768.25;6219921;23;20024;-79
2021/09/24 03:25:48;;;;;;;10.48;2.47;;;;;;;16.82;68.23;99771.63;6219385;23;20070;-79
2021/09/24 03:28:16;;;;;;;7.95;2.42;;;;;;;16.83;68.30;99767.16;6219508;23;20024;-79
2021/09/24 03:30:43;;;;;;;8.10;1.88;;;;;;;16.84;68.26;99771.50;6219780;23;20036;-79
2021/09/24 03:33:09;;;;;;;11.00;2.25;;;;;;;16.85;68.20;99781.19;6219507;23;20031;-79
2021/09/24 03:35:36;;;;;;;5.63;1.83;;;;;;;16.85;68.14;99779.34;6219684;23;20048;-79
2021/09/24 03:38:03;;;;;;;9.45;2.40;;;;;;;16.86;68.30;99786.34;6219883;23;20390;-80
2021/09/24 03:40:36;;;;;;;9.95;2.50;;;;;;;16.85;68.55;99789.97;6219488;23;20055;-78
2021/09/24 03:43:03;;;;;;;9.52;2.40;;;;;;;16.89;68.14;99795.88;6219437;23;20055;-79
2021/09/24 03:45:30;;;;;;;9.80;2.40;;;;;;;16.88;68.16;99787.06;6221355;23;20443;-79
2021/09/24 03:47:57;;;;;;;7.68;2.15;;;;;;;16.89;68.04;99785.22;6221837;23;20035;-79
2021/09/24 03:50:24;;;;;;;11.05;2.22;;;;;;;16.90;68.19;99797.59;6221260;23;20024;-79
2021/09/24 03:53:16;;;;;;;9.73;2.03;;;;;;;16.85;68.79;99792.63;6221410;23;20020;-79
2021/09/24 03:55:43;;;;;;;5.88;2.35;;;;;;;16.91;68.17;99785.97;6247836;23;20082;-79
2021/09/24 03:58:10;;;;;;;7.10;2.08;;;;;;;16.91;67.98;99788.63;6221632;23;20020;-79
2021/09/24 04:00:54;;;;;;;8.60;2.13;;;;;;;16.88;68.74;99794.19;6221384;23;20024;-79
2021/09/24 04:03:21;;;;;;;6.93;2.25;;;;;;;16.93;68.14;99792.84;6221831;23;20382;-79
2021/09/24 04:05:48;;;;;;;8.60;2.20;;;;;;;16.94;68.08;99799.00;6221011;23;20074;-79
2021/09/24 04:08:41;;;;;;;8.05;1.98;;;;;;;16.91;68.66;99785.97;6221261;23;20070;-79
2021/09/24 04:11:07;;;;;;;7.10;2.37;;;;;;;16.97;68.03;99795.25;6221539;23;20027;-79
2021/09/24 04:13:34;;;;;;;8.90;2.70;;;;;;;16.97;68.04;99793.41;6221411;23;20028;-79
2021/09/24 04:16:12;;;;;;;7.93;2.58;;;;;;;16.95;68.49;99795.38;6221391;23;20090;-79
2021/09/24 04:18:39;;;;;;;9.60;2.55;;;;;;;16.97;67.85;99796.06;6221588;23;20020;-79
2021/09/24 04:21:12;;;;;;;6.38;2.22;;;;;;;16.94;68.33;99799.84;6221369;23;20016;-79
2021/09/24 04:23:57;;;;;;;8.23;2.58;;;;;;;16.93;68.58;99805.28;6221064;23;20024;-79
2021/09/24 04:26:24;;;;;;;13.88;2.75;;;;;;;16.97;68.11;99804.06;6221191;23;20024;-79
2021/09/24 04:29:00;;;;;;;8.38;2.90;;;;;;;16.95;68.27;99808.66;6221696;23;20443;-79
2021/09/24 04:31:28;;;;;;;8.50;2.22;;;;;;;16.97;68.21;99798.72;6221114;23;20367;-79
2021/09/24 04:34:01;;;;;;;10.70;2.55;;;;;;;16.95;68.68;99806.00;6221141;23;20026;-78
2021/09/24 04:36:28;;;;;;;;;;;;;;;16.98;68.23;99804.91;6221845;23;20491;-79
2021/09/24 04:38:56;;;;;;;9.02;3.05;;;;;;;17.03;67.67;99805.38;6220824;23;19922;-79
2021/09/24 04:41:25;;;;;;;6.85;2.70;;;;;;;17.00;67.84;99809.13;6220663;23;20103;-79
2021/09/24 04:43:52;;;;;;;7.55;2.35;;;;;;;17.00;67.67;99803.81;6221378;23;20020;-79
2021/09/24 04:46:29;;;;;;;13.27;3.45;;;;;;;16.96;68.53;99806.88;6220925;23;20106;-79
2021/09/24 04:48:57;;;;;;;8.05;2.17;;;;;;;16.99;67.94;99806.59;6220762;23;20091;-79
2021/09/24 04:51:24;;;;;;;11.80;2.80;;;;;;;16.98;68.07;99805.75;6221075;23;20123;-79
2021/09/24 04:53:51;;;;;;;9.35;2.28;;;;;;;16.98;68.00;99800.44;6220886;23;20020;-79
2021/09/24 04:56:24;;;;;;;7.38;2.47;;;;;;;16.96;68.57;99801.56;6220773;23;20028;-79
2021/09/24 04:58:50;;;;;;;11.73;2.67;;;;;;;16.99;68.07;99809.25;6220891;23;20024;-79
2021/09/24 05:01:26;;;;;;;8.40;2.42;;;;;;;16.96;68.62;99813.00;6221295;23;20024;-79
2021/09/24 05:03:54;;;;;;;9.98;2.60;;;;;;;16.99;68.25;99811.91;6220866;23;20443;-79
2021/09/24 05:06:20;;;;;;;11.05;2.80;;;;;;;16.99;68.24;99812.75;6220699;23;20020;-79
2021/09/24 05:09:02;;;;;;;7.03;2.55;;;;;;;16.96;68.69;99813.00;6220655;23;20020;-79
2021/09/24 05:11:29;;;;;;;12.90;3.13;;;;;;;17.01;68.14;99804.66;6220713;23;20067;-79
2021/09/24 05:13:59;;;;;;;10.98;3.38;;;;;;;17.00;68.57;99803.81;6220425;23;20469;-79
2021/09/24 05:16:26;;;;;;;9.02;3.30;;;;;;;17.02;68.35;99801.03;6221126;23;20384;-79
2021/09/24 05:18:53;;;;;;;10.55;2.78;;;;;;;17.02;68.25;99803.69;6220558;23;20024;-79
2021/09/24 05:21:20;;;;;;;10.73;3.30;;;;;;;17.03;68.21;99795.59;6220040;23;20020;-79
2021/09/24 05:23:47;;;;;;;11.07;3.40;;;;;;;17.04;68.21;99794.63;6220134;23;20020;-79
2021/09/24 05:26:19;;;;;;;11.48;3.72;;;;;;;17.02;68.54;99799.22;6246730;23;20091;-79
2021/09/24 05:28:45;;;;;;;10.43;3.30;;;;;;;17.05;68.36;99788.34;6246697;23;20020;-80
2021/09/24 05:31:12;;;;;;;14.68;3.17;;;;;;;17.06;68.14;99787.38;6219680;23;20020;-80
2021/09/24 05:33:42;;;;;;;9.85;3.35;;;;;;;17.05;68.51;99795.50;6220107;23;20095;-79
2021/09/24 05:36:11;;;;;;;9.77;3.42;;;;;;;17.08;68.27;99794.38;6246436;23;20351;-80
2021/09/24 05:38:41;;;;;;;12.60;3.70;;;;;;;17.07;68.60;99798.84;6220275;23;20091;-80
2021/09/24 05:41:17;;;;;;;11.10;3.63;;;;;;;17.07;68.72;99793.53;6219780;23;20026;-80
2021/09/24 05:43:44;;;;;;;7.97;3.35;;;;;;;17.10;68.42;99787.97;6220409;23;20346;-80
2021/09/24 05:46:12;;;;;;;11.40;3.63;;;;;;;17.12;68.30;99785.19;6220716;23;20095;-79
2021/09/24 05:48:40;;;;;;;9.07;3.38;;;;;;;17.12;68.48;99783.34;6220057;23;20020;-79
2021/09/24 05:51:06;;;;;;;13.05;4.18;;;;;;;17.14;68.28;99783.22;6220513;23;20020;-78
2021/09/24 05:53:33;;;;;;;9.40;3.97;;;;;;;17.13;68.38;99777.06;6246520;23;20020;-78
2021/09/24 05:56:03;;;;;;;10.80;3.85;;;;;;;17.14;68.38;99769.91;6220510;23;20020;-78
2021/09/24 05:58:29;;;;;;;10.73;3.88;;;;;;;17.16;68.25;99775.97;6220272;23;20035;-79
2021/09/24 06:00:57;;;;;;;8.10;3.53;;;;;;;17.16;68.31;99773.31;6220921;23;20396;-78
2021/09/24 06:06:48;;;;;;;10.30;3.95;;;;;;;17.20;68.15;99777.41;6247030;23;20046;-83
2021/09/24 06:09:21;;;;;;;9.82;4.13;;;;;;;17.18;68.59;99782.84;6247058;23;20087;-83
2021/09/24 06:11:48;;;;;;;16.15;4.88;;;;;;;17.22;68.53;99778.09;6220510;23;20499;-80
2021/09/24 06:14:19;;;;;;;11.60;4.72;;;;;;;17.21;68.70;99780.88;6220402;23;20379;-80
2021/09/24 06:16:45;;;;;;;13.95;4.90;;;;;;;17.25;68.42;99784.97;6246452;23;20095;-80
2021/09/24 06:19:12;;;;;;;14.68;4.90;;;;;;;17.25;68.39;99783.16;6220082;23;20026;-80
2021/09/24 06:21:40;;;;;;;8.20;4.72;;;;;;;17.27;68.52;99786.53;6220223;23;20020;-79
2021/09/24 06:24:10;;;;;;;13.45;4.97;;;;;;;17.28;68.51;99792.69;6220952;23;20342;-79
2021/09/24 06:26:37;;;;;;;10.45;4.45;;;;;;;17.30;68.51;99788.06;6219986;23;20020;-79
2021/09/24 06:29:04;;;;;;;11.52;4.88;;;;;;;17.30;68.63;99783.59;6220298;23;20026;-83
2021/09/24 06:31:32;;;;;;;14.15;6.38;;;;;;;17.31;68.58;99782.63;6246128;23;20032;-83
2021/09/24 06:34:01;;;;;;;10.25;5.25;;;;;;;17.34;68.62;99784.19;6219458;23;20103;-83
2021/09/24 06:36:28;;;;;;;11.07;5.28;;;;;;;17.36;68.45;99784.91;6246350;23;20020;-83
2021/09/24 06:38:54;;;;;;;12.38;5.43;;;;;;;17.37;68.49;99794.56;6220256;23;20035;-79
2021/09/24 06:41:21;;;;;;;13.20;6.18;;;;;;;17.38;68.41;99790.09;6219973;23;20099;-79
2021/09/24 06:43:48;;;;;;;12.52;5.78;;;;;;;17.40;68.51;99793.47;6219832;23;20031;-79
2021/09/24 06:46:34;;;;;;;11.35;5.82;;;;;;;17.43;68.58;99795.88;6219665;23;20055;-82
2021/09/24 06:49:03;;;;;;;12.20;5.50;;;;;;;17.45;68.54;99801.88;6220226;23;20024;-83
2021/09/24 06:51:30;;;;;;;15.25;6.03;;;;;;;17.46;68.63;99795.63;6220145;23;20419;-83
2021/09/24 06:54:03;;;;;;;12.68;5.68;;;;;;;17.44;68.96;99784.25;6219727;23;20028;-83
2021/09/24 06:56:30;;;;;;;;;;;;;;;17.47;68.95;99784.00;6220055;23;20027;-83
2021/09/24 06:58:56;;;;;;;10.55;5.25;;;;;;;17.53;68.27;99786.09;6220097;23;20354;-83
2021/09/24 07:01:23;;;;;;;16.15;5.97;;;;;;;17.53;68.23;99783.44;6220094;23;20102;-83
2021/09/24 07:03:50;;;;;;;15.63;6.13;;;;;;;17.54;68.50;99785.13;6219958;23;20020;-78
2021/09/24 07:06:19;;;;;;;14.63;6.25;;;;;;;17.53;68.63;99786.09;6219918;23;20024;-79
2021/09/24 07:08:46;;;;;;;12.15;6.15;;;;;;;17.56;68.51;99790.31;6219349;23;20035;-78
2021/09/24 07:11:13;;;;;;;21.52;6.93;;;;;;;17.55;68.50;99786.84;6220340;23;20437;-78
2021/09/24 07:13:43;;;;;;;14.55;6.63;;;;;;;17.55;68.75;99789.50;6220486;23;20016;-78
2021/09/24 07:16:09;;;;;;;15.15;5.90;;;;;;;17.58;68.71;99783.88;6219557;23;20099;-79
2021/09/24 07:18:38;;;;;;;11.77;6.35;;;;;;;17.59;68.43;99784.75;6220660;23;20095;-79
2021/09/24 07:21:05;;;;;;;12.80;6.05;;;;;;;17.61;68.55;99779.28;6222867;23;20026;-78
2021/09/24 07:23:34;;;;;;;12.65;6.05;;;;;;;17.61;68.84;99779.28;6222868;23;20020;-79
2021/09/24 07:26:00;;;;;;;13.27;6.63;;;;;;;17.63;68.66;99785.31;6222770;23;20020;-79
2021/09/24 07:28:27;;;;;;;14.63;6.60;;;;;;;17.64;68.36;99789.69;6223070;23;20023;-78
2021/09/24 07:30:57;;;;;;;11.35;6.60;;;;;;;17.62;68.91;99781.81;6222694;23;20034;-79
2021/09/24 07:33:24;;;;;;;15.32;6.95;;;;;;;17.65;68.89;99794.03;6223286;23;20487;-78
2021/09/24 07:35:56;;;;;;;11.82;6.20;;;;;;;17.63;69.25;99788.81;6222826;23;20028;-78
2021/09/24 07:38:22;;;;;;;12.13;5.80;;;;;;;17.67;68.87;99792.06;6223348;23;20099;-78
2021/09/24 07:40:58;;;;;;;14.65;6.65;;;;;;;17.67;69.33;99790.25;6223243;23;20058;-77
2021/09/24 07:43:25;;;;;;;14.02;6.80;;;;;;;17.73;68.54;99799.53;6223209;23;20024;-78
2021/09/24 07:45:52;;;;;;;11.32;5.97;;;;;;;17.75;68.67;99800.22;6222592;23;20020;-78
2021/09/24 07:48:19;;;;;;;11.25;6.03;;;;;;;17.77;68.84;99808.94;6223005;23;20147;-77
2021/09/24 07:50:45;;;;;;;12.75;6.07;;;;;;;17.78;68.63;99801.78;6222698;23;20024;-78
2021/09/24 07:53:12;;;;;;;15.43;6.95;;;;;;;17.81;68.69;99807.69;6222562;23;20016;-79
2021/09/24 07:55:42;;;;;;;15.40;6.32;;;;;;;17.83;68.96;99810.22;6223136;23;20439;-78
2021/09/24 07:58:09;;;;;;;11.77;5.72;;;;;;;17.88;68.71;99813.31;6222936;23;20020;-78
2021/09/24 08:00:36;;;;;;;11.95;5.78;;;;;;;17.91;68.95;99814.88;6223099;23;20027;-78
2021/09/24 08:03:04;;;;;;;10.73;5.72;;;;;;;17.95;68.75;99811.78;6223113;23;20020;-78
2021/09/24 08:05:31;;;;;;;10.63;6.00;;;;;;;18.00;68.52;99811.41;6222941;23;20064;-78
2021/09/24 08:07:59;;;;;;;12.35;5.70;;;;;;;18.04;68.38;99812.81;6222497;23;20103;-79
2021/09/24 08:10:26;;;;;;;12.20;5.93;;;;;;;18.07;68.59;99814.38;6222902;23;20020;-78
2021/09/24 08:12:55;;;;;;;12.45;6.78;;;;;;;18.10;68.23;99808.81;6223045;23;20016;-82
2021/09/24 08:15:22;;;;;;;9.77;6.00;;;;;;;18.14;68.27;99812.88;6222977;23;20047;-83
2021/09/24 08:17:49;;;;;;;13.70;7.07;;;;;;;18.18;67.99;99805.47;6222794;23;20020;-79
2021/09/24 08:20:17;;;;;;;10.65;7.05;;;;;;;18.20;68.24;99812.34;6222717;23;20103;-79
2021/09/24 08:22:44;;;;;;;12.65;7.10;;;;;;;18.22;67.74;99810.41;6222818;23;20397;-79
2021/09/24 08:25:15;;;;;;;11.35;7.90;;;;;;;18.23;68.14;99805.88;6222877;23;20032;-79
2021/09/24 08:27:54;;;;;;;11.65;7.70;;;;;;;18.22;68.35;99810.41;6223015;23;20020;-79
2021/09/24 08:30:35;;;;;;;15.10;9.25;;;;;;;18.25;68.21;99806.63;6222079;23;20340;-79
2021/09/24 08:33:02;;;;;;;13.25;9.45;;;;;;;18.32;67.84;99806.91;6221029;23;20024;-79
2021/09/24 08:35:29;;;;;;;16.48;10.32;;;;;;;18.36;67.98;99805.66;6221500;23;20407;-79
2021/09/24 08:38:15;;;;;;;16.73;10.35;;;;;;;18.35;67.97;99806.59;6221348;23;20020;-79
2021/09/24 08:40:42;;;;;;;15.38;11.20;;;;;;;18.45;68.04;99798.63;6247573;23;20016;-79
2021/09/24 08:43:46;;;;;;;16.35;11.82;;;;;;;18.42;67.97;99798.91;6221460;23;20045;-79
2021/09/24 08:46:17;;;;;;;16.77;12.23;;;;;;;18.52;67.59;99801.59;6221189;23;20026;-79
2021/09/24 08:48:48;;;;;;;17.58;12.82;;;;;;;18.53;67.67;99806.78;6220934;23;20028;-79
2021/09/24 08:51:15;;;;;;;20.52;12.75;;;;;;;18.56;67.64;99798.53;6247853;23;20074;-79
2021/09/24 08:54:00;;;;;;;19.88;14.48;;;;;;;18.55;68.25;99794.19;6221279;23;20331;-79
2021/09/24 08:56:27;;;;;;;21.17;15.10;;;;;;;18.62;68.09;99797.97;6221414;23;20098;-79
2021/09/24 08:59:30;;;;;;;18.13;14.02;;;;;;;18.61;68.00;99796.28;6221473;23;20088;-79
2021/09/24 09:02:08;;;;;;;21.38;14.88;;;;;;;18.68;68.03;99798.38;6220785;23;20103;-79
2021/09/24 09:04:41;;;;;;;24.80;16.17;;;;;;;18.71;68.20;99798.97;6220440;23;20035;-79
2021/09/24 09:07:10;;;;;;;21.05;15.65;;;;;;;18.75;68.14;99799.50;6220826;23;20020;-79
2021/09/24 09:09:40;;;;;;;22.95;15.80;;;;;;;18.78;68.07;99798.38;6221012;23;20107;-79
2021/09/24 09:12:43;;;;;;;24.30;16.05;;;;;;;18.75;68.23;99804.84;6247267;23;20103;-80
2021/09/24 09:15:15;;;;;;;22.98;16.25;;;;;;;18.81;67.68;99806.97;6221413;23;20023;-79
2021/09/24 09:17:44;;;;;;;28.30;18.77;;;;;;;18.82;67.73;99808.66;6221421;23;20047;-80
2021/09/24 09:20:23;;;;;;;24.45;18.00;;;;;;;18.81;67.91;99808.78;6220863;23;20047;-80
2021/09/24 09:25:54;;;;;;;25.70;18.10;;;;;;;18.85;68.16;99808.38;6246950;23;20103;-80
2021/09/24 09:28:30;;;;;;;29.38;19.15;;;;;;;18.84;68.44;99812.00;6220757;23;20095;-80
2021/09/24 09:30:57;;;;;;;29.70;19.73;;;;;;;18.88;68.12;99805.41;6219950;23;20024;-80
2021/09/24 09:33:25;;;;;;;31.80;20.98;;;;;;;18.89;67.98;99800.94;6247436;23;20091;-83
2021/09/24 09:36:06;;;;;;;29.58;19.73;;;;;;;18.86;68.48;99802.06;6220903;23;20095;-83
2021/09/24 09:39:13;;;;;;;30.83;21.35;;;;;;;18.87;68.44;99809.06;6246853;23;20067;-83
2021/09/24 09:41:59;;;;;;;32.25;21.75;;;;;;;18.89;68.78;99793.75;6243331;23;20034;-83
2021/09/24 09:44:32;;;;;;;34.42;21.20;;;;;;;18.93;68.47;99797.00;6220178;23;20099;-83
2021/09/24 09:46:59;;;;;;;37.65;21.55;;;;;;;18.96;68.54;99801.19;6220397;23;20020;-83
2021/09/24 09:49:50;;;;;;;34.28;22.55;;;;;;;18.95;68.60;99795.00;6220154;23;20032;-83
2021/09/24 09:52:17;;;;;;;31.65;20.88;;;;;;;19.04;68.79;99793.34;6220151;23;20102;-83
2021/09/24 09:54:44;;;;;;;35.75;22.52;;;;;;;19.09;68.55;99790.25;6220041;23;20024;-83
2021/09/24 09:57:27;;;;;;;38.88;23.23;;;;;;;19.10;69.11;99789.28;6220566;23;20415;-83
2021/09/24 09:59:56;;;;;;;38.10;23.52;;;;;;;19.19;68.39;99790.25;6220795;23;20032;-83
2021/09/24 10:02:31;;;;;;;37.10;22.95;;;;;;;19.20;68.48;99787.44;6220301;23;20020;-83
2021/09/24 10:05:01;;;;;;;35.47;22.35;;;;;;;19.24;68.53;99778.16;6220626;23;20059;-83
2021/09/24 10:07:35;;;;;;;33.35;20.83;;;;;;;19.25;68.24;99779.03;6220156;23;20028;-83
2021/09/24 10:12:48;;;;;;;34.03;22.38;;;;;;;19.34;68.12;99778.16;6246536;23;20022;-83
2021/09/24 10:15:16;;;;;;;36.97;21.55;;;;;;;19.37;68.34;99766.34;6219828;23;20107;-83
2021/09/24 10:18:04;;;;;;;35.00;22.02;;;;;;;19.34;68.29;99778.16;6220308;23;20661;-83
2021/09/24 10:20:31;;;;;;;40.33;23.40;;;;;;;19.39;67.81;99759.03;6219997;23;20020;-83
2021/09/24 10:22:58;;;;;;;34.67;22.33;;;;;;;19.39;67.74;99772.38;6220438;23;20046;-83
2021/09/24 10:25:26;;;;;;;38.88;23.05;;;;;;;19.38;68.03;99776.88;6219751;23;20028;-83
2021/09/24 10:28:17;;;;;;;37.67;22.27;;;;;;;19.33;68.58;99781.78;6219885;23;20019;-83
2021/09/24 10:30:56;;;;;;;41.47;23.80;;;;;;;19.34;68.53;99778.16;6220101;23;20016;-83
2021/09/24 10:34:01;;;;;;;38.88;23.35;;;;;;;19.34;68.44;99771.97;6220290;23;20016;-82
2021/09/24 10:36:55;;;;;;;42.53;22.92;;;;;;;19.33;68.38;99765.78;6219780;23;20028;-83
2021/09/24 10:39:29;;;;;;;45.70;24.85;;;;;;;19.35;68.16;99779.84;6246217;23;20024;-83
2021/09/24 10:42:34;;;;;;;42.83;24.67;;;;;;;19.32;68.84;99779.28;6246726;23;20047;-82
2021/09/24 10:45:32;;;;;;;38.95;24.52;;;;;;;19.35;68.25;99778.97;6220023;23;20076;-83
2021/09/24 10:48:27;;;;;;;43.15;26.02;;;;;;;19.35;67.91;99778.97;6219711;23;20103;-82
2021/09/24 10:51:02;;;;;;;44.60;25.25;;;;;;;19.30;68.18;99771.41;6215693;23;20059;-83
2021/09/24 10:53:42;;;;;;;44.80;26.13;;;;;;;19.29;68.52;99777.75;6219897;23;20386;-79
2021/09/24 10:56:22;;;;;;;39.92;24.98;;;;;;;19.29;68.61;99774.22;6219672;23;20106;-79
2021/09/24 10:58:50;;;;;;;45.83;26.67;;;;;;;19.33;67.90;99780.97;6220100;23;20038;-78
2021/09/24 11:01:32;;;;;;;44.03;26.20;;;;;;;19.26;68.15;99775.38;6219687;23;20055;-78
2021/09/24 11:04:09;;;;;;;37.97;23.98;;;;;;;19.29;68.06;99775.09;6219870;23;20052;-78
2021/09/24 11:06:45;;;;;;;40.30;24.23;;;;;;;19.27;68.64;99774.38;6220153;23;20401;-78
2021/09/24 11:09:18;;;;;;;41.95;23.33;;;;;;;19.26;68.50;99778.03;6220188;23;20020;-78
2021/09/24 11:12:04;;;;;;;42.80;24.52;;;;;;;19.26;68.63;99778.03;6219928;23;20028;-78
2021/09/24 11:14:43;;;;;;;44.63;24.50;;;;;;;19.26;68.60;99772.69;6219701;23;20403;-78
2021/09/24 11:17:12;;;;;;;43.92;25.15;;;;;;;19.30;68.38;99778.56;6219664;23;20051;-78
2021/09/24 11:19:46;;;;;;;41.90;24.90;;;;;;;19.30;68.26;99779.44;6219810;23;20020;-79
2021/09/24 11:22:45;;;;;;;36.75;22.65;;;;;;;19.28;68.65;99778.72;6220056;23;20343;-79
2021/09/24 11:25:12;;;;;;;36.85;22.63;;;;;;;19.36;68.05;99775.34;6220280;23;20387;-83
2021/09/24 11:27:44;;;;;;;37.72;23.05;;;;;;;19.33;68.48;99776.44;6219894;23;20098;-83
2021/09/24 11:30:17;;;;;;;32.72;20.98;;;;;;;19.34;68.10;99771.97;6219972;23;20534;-83
2021/09/24 11:32:54;;;;;;;42.05;21.75;;;;;;;19.34;68.33;99774.63;6219934;23;20032;-83
2021/09/24 11:35:37;;;;;;;32.78;21.95;;;;;;;19.34;68.49;99780.81;6219577;23;20402;-83
2021/09/24 11:38:25;;;;;;;33.92;20.60;;;;;;;19.33;68.60;99779.13;6219956;23;20470;-82
2021/09/24 11:40:58;;;;;;;35.13;21.10;;;;;;;19.36;68.00;99772.69;6219238;23;20455;-83
2021/09/24 11:43:47;;;;;;;36.33;20.23;;;;;;;19.35;68.34;99770.97;6246308;23;20419;-83
2021/09/24 11:46:21;;;;;;;30.45;20.27;;;;;;;19.40;68.03;99771.41;6219897;23;20032;-84
2021/09/24 11:48:52;;;;;;;32.35;20.55;;;;;;;19.42;68.21;99774.75;6220163;23;20374;-84
2021/09/24 11:54:46;;;;;;;35.88;19.60;;;;;;;19.49;68.15;99769.69;6245770;23;20021;-84
2021/09/24 11:57:17;;;;;;;33.53;19.55;;;;;;;19.49;68.11;99767.00;6219802;23;20024;-84
2021/09/24 12:00:00;;;;;;;33.10;20.83;;;;;;;19.50;68.20;99768.69;6219878;23;20028;-84